Time;durP1;ratioP1;P1;durP2;ratioP2;P2;SDS_P1;SDS_P2;PMS_P1;PMS_P2;Temp;Humidity;BMP_temperature;BMP_pressure;BME280_temperature;BME280_humidity;BME280_pressure;Samples;Min_cycle;Max_cycle;Signal;HPM_P1;HPM_P2
2021/03/18 00:02:39;;;;;;;2.55;1.73;;;;;;;;;;6201743;28;20084;-69
2021/03/18 00:05:41;;;;;;;2.22;1.73;;;;;;;;;;6204807;28;20136;-70
2021/03/18 00:08:46;;;;;;;3.20;2.17;;;;;;;;;;6205116;28;20141;-69
2021/03/18 00:11:49;;;;;;;5.85;2.17;;;;;;;;;;6208604;28;20128;-70
2021/03/18 00:14:50;;;;;;;3.58;2.35;;;;;;;;;;6207052;28;20074;-70
2021/03/18 00:17:51;;;;;;;5.10;2.33;;;;;;;;;;6206393;28;20580;-69
2021/03/18 00:20:52;;;;;;;3.70;2.33;;;;;;;;;;6207272;28;20700;-70
2021/03/18 00:23:54;;;;;;;6.28;2.50;;;;;;;;;;6206153;28;20140;-69
2021/03/18 00:26:55;;;;;;;3.40;2.20;;;;;;;;;;6200579;28;20145;-69
2021/03/18 00:29:56;;;;;;;3.15;2.05;;;;;;;;;;6204956;28;20042;-71
2021/03/18 00:32:57;;;;;;;3.67;2.38;;;;;;;;;;6207465;28;20176;-70
2021/03/18 00:35:58;;;;;;;4.30;2.30;;;;;;;;;;6202953;28;20129;-70
2021/03/18 00:39:01;;;;;;;4.38;2.90;;;;;;;;;;6205734;28;20048;-70
2021/03/18 00:42:03;;;;;;;4.03;2.45;;;;;;;;;;6205339;28;20121;-69
2021/03/18 00:45:05;;;;;;;6.78;2.67;;;;;;;;;;6201732;28;20077;-72
2021/03/18 00:48:08;;;;;;;4.30;2.92;;;;;;;;;;6202345;28;20611;-72
2021/03/18 00:51:12;;;;;;;9.73;2.75;;;;;;;;;;6205549;28;20137;-71
2021/03/18 00:54:15;;;;;;;4.90;3.03;;;;;;;;;;6205526;28;20425;-70
2021/03/18 00:57:17;;;;;;;6.18;3.40;;;;;;;;;;6175431;28;20144;-69
2021/03/18 01:00:20;;;;;;;4.38;2.85;;;;;;;;;;6205716;28;20426;-71
2021/03/18 01:03:22;;;;;;;6.10;3.08;;;;;;;;;;6199728;28;20054;-69
2021/03/18 01:06:25;;;;;;;4.97;2.63;;;;;;;;;;6203865;28;20085;-68
2021/03/18 01:09:26;;;;;;;4.95;2.85;;;;;;;;;;6204355;28;20508;-69
2021/03/18 01:12:27;;;;;;;4.63;2.85;;;;;;;;;;6202795;28;20050;-70
2021/03/18 01:15:29;;;;;;;4.15;2.80;;;;;;;;;;6207168;28;20046;-70
2021/03/18 01:18:36;;;;;;;6.00;2.75;;;;;;;;;;6208310;28;20184;-71
2021/03/18 01:21:39;;;;;;;5.63;2.80;;;;;;;;;;6214747;28;20065;-69
2021/03/18 01:24:41;;;;;;;4.22;2.72;;;;;;;;;;6210139;28;20089;-70
2021/03/18 01:27:43;;;;;;;4.35;2.88;;;;;;;;;;6196231;28;20475;-70
2021/03/18 01:30:44;;;;;;;3.97;2.47;;;;;;;;;;6193254;28;20050;-70
2021/03/18 01:33:46;;;;;;;4.20;2.67;;;;;;;;;;6206457;28;20081;-71
2021/03/18 01:36:48;;;;;;;5.90;2.83;;;;;;;;;;6200478;28;20413;-69
2021/03/18 01:39:51;;;;;;;4.70;3.10;;;;;;;;;;6209903;28;20139;-68
2021/03/18 01:42:52;;;;;;;6.03;3.03;;;;;;;;;;6212911;28;20046;-68
2021/03/18 01:45:54;;;;;;;8.90;3.60;;;;;;;;;;6198622;28;20081;-69
2021/03/18 01:48:55;;;;;;;7.20;3.15;;;;;;;;;;6195316;28;20140;-69
2021/03/18 01:51:56;;;;;;;6.35;3.28;;;;;;;;;;6190917;28;20096;-70
2021/03/18 01:54:58;;;;;;;7.72;3.47;;;;;;;;;;6211538;28;20573;-69
2021/03/18 01:57:59;;;;;;;5.03;3.55;;;;;;;;;;6205827;28;20070;-69
2021/03/18 02:01:03;;;;;;;6.25;3.47;;;;;;;;;;6208579;28;20050;-71
2021/03/18 02:04:04;;;;;;;4.93;2.90;;;;;;;;;;6187083;28;20165;-71
2021/03/18 02:07:05;;;;;;;6.72;3.20;;;;;;;;;;6180980;28;20128;-70
2021/03/18 02:10:09;;;;;;;5.53;3.20;;;;;;;;;;6184071;28;20089;-70
2021/03/18 02:13:13;;;;;;;6.03;3.40;;;;;;;;;;6191684;28;20176;-69
2021/03/18 02:16:14;;;;;;;6.50;3.45;;;;;;;;;;6195210;28;20729;-69
2021/03/18 02:19:34;;;;;;;5.95;3.45;;;;;;;;;;6203515;28;20100;-70
2021/03/18 02:22:37;;;;;;;7.97;4.18;;;;;;;;;;6187781;28;20050;-69
2021/03/18 02:25:43;;;;;;;5.30;3.50;;;;;;;;;;6177788;28;20055;-70
2021/03/18 02:28:53;;;;;;;6.72;4.03;;;;;;;;;;6157486;28;20130;-69
2021/03/18 02:32:01;;;;;;;6.40;3.53;;;;;;;;;;6165684;28;20061;-69
2021/03/18 02:35:27;;;;;;;6.88;3.90;;;;;;;;;;6159196;28;20237;-70
2021/03/18 02:38:30;;;;;;;5.43;3.38;;;;;;;;;;6161930;28;20046;-70
2021/03/18 02:41:34;;;;;;;5.78;3.47;;;;;;;;;;6168208;28;20393;-69
2021/03/18 02:44:39;;;;;;;5.60;3.63;;;;;;;;;;6155736;28;20047;-69
2021/03/18 02:47:40;;;;;;;5.75;3.85;;;;;;;;;;6151341;28;20051;-70
2021/03/18 02:50:42;;;;;;;6.50;3.80;;;;;;;;;;6167818;28;20050;-70
2021/03/18 02:53:45;;;;;;;5.57;3.53;;;;;;;;;;6165299;28;20043;-70
2021/03/18 02:56:48;;;;;;;6.40;3.65;;;;;;;;;;6161624;28;20190;-70
2021/03/18 02:59:51;;;;;;;7.40;3.35;;;;;;;;;;6163343;28;20058;-71
2021/03/18 03:02:53;;;;;;;6.05;3.58;;;;;;;;;;6162824;28;20141;-69
2021/03/18 03:05:56;;;;;;;7.82;3.95;;;;;;;;;;6160233;28;20134;-69
2021/03/18 03:09:00;;;;;;;7.10;3.53;;;;;;;;;;6153848;28;20066;-69
2021/03/18 03:12:02;;;;;;;6.77;3.63;;;;;;;;;;6170672;28;20153;-69
2021/03/18 03:15:05;;;;;;;7.13;3.78;;;;;;;;;;6186733;28;20481;-70
2021/03/18 03:18:08;;;;;;;7.05;4.32;;;;;;;;;;6175904;28;20604;-70
2021/03/18 03:21:12;;;;;;;6.82;3.80;;;;;;;;;;6156682;28;20066;-72
2021/03/18 03:24:15;;;;;;;5.35;3.58;;;;;;;;;;6171423;28;20074;-70
2021/03/18 03:27:16;;;;;;;5.68;4.05;;;;;;;;;;6198047;28;20042;-70
2021/03/18 03:30:18;;;;;;;7.65;4.10;;;;;;;;;;6206770;28;20050;-71
2021/03/18 03:33:19;;;;;;;5.97;3.47;;;;;;;;;;6202961;28;21167;-70
2021/03/18 03:36:21;;;;;;;6.90;4.00;;;;;;;;;;6206185;28;20061;-70
2021/03/18 03:39:22;;;;;;;6.78;3.90;;;;;;;;;;6206007;28;20105;-69
2021/03/18 03:42:23;;;;;;;7.15;3.63;;;;;;;;;;6208293;28;20120;-70
2021/03/18 03:45:25;;;;;;;6.05;3.60;;;;;;;;;;6213371;28;20132;-70
2021/03/18 03:48:29;;;;;;;5.45;3.90;;;;;;;;;;6208968;28;20430;-70
2021/03/18 03:51:38;;;;;;;8.80;3.80;;;;;;;;;;6207346;28;20124;-70
2021/03/18 03:54:44;;;;;;;6.20;3.40;;;;;;;;;;6206860;28;20175;-70
2021/03/18 03:57:49;;;;;;;8.60;4.03;;;;;;;;;;6202082;28;20872;-68
2021/03/18 04:00:51;;;;;;;6.68;4.55;;;;;;;;;;6203137;28;20250;-69
2021/03/18 04:03:53;;;;;;;6.78;4.43;;;;;;;;;;6208438;28;20064;-70
2021/03/18 04:06:59;;;;;;;5.50;3.63;;;;;;;;;;6210741;28;20133;-70
2021/03/18 04:10:01;;;;;;;6.13;3.65;;;;;;;;;;6204449;28;20143;-71
2021/03/18 04:13:03;;;;;;;5.47;3.55;;;;;;;;;;6214356;28;20128;-72
2021/03/18 04:16:05;;;;;;;5.15;3.50;;;;;;;;;;6209458;28;20061;-70
2021/03/18 04:19:06;;;;;;;7.20;4.40;;;;;;;;;;6215119;28;20041;-71
2021/03/18 04:22:10;;;;;;;6.72;3.80;;;;;;;;;;6205295;28;20081;-70
2021/03/18 04:25:12;;;;;;;6.55;3.75;;;;;;;;;;6208038;28;20053;-70
2021/03/18 04:28:14;;;;;;;7.85;3.40;;;;;;;;;;6210812;28;20093;-72
2021/03/18 04:31:15;;;;;;;5.72;3.58;;;;;;;;;;6198500;28;20149;-71
2021/03/18 04:34:19;;;;;;;6.82;3.78;;;;;;;;;;6178891;28;20047;-69
2021/03/18 04:37:21;;;;;;;5.95;3.17;;;;;;;;;;6192623;28;20042;-68
2021/03/18 04:40:23;;;;;;;6.20;3.55;;;;;;;;;;6193527;28;20061;-69
2021/03/18 04:43:25;;;;;;;8.00;3.50;;;;;;;;;;6206198;28;20058;-69
2021/03/18 04:46:27;;;;;;;4.68;3.17;;;;;;;;;;6208785;28;20491;-68
2021/03/18 04:49:28;;;;;;;6.20;3.20;;;;;;;;;;6207622;28;20121;-69
2021/03/18 04:52:30;;;;;;;6.60;3.15;;;;;;;;;;6181886;28;20588;-71
2021/03/18 04:55:31;;;;;;;8.05;3.28;;;;;;;;;;6179132;28;20149;-70
2021/03/18 04:58:33;;;;;;;4.75;3.03;;;;;;;;;;6179183;28;20158;-70
2021/03/18 05:01:35;;;;;;;6.18;3.20;;;;;;;;;;6179167;28;20579;-70
2021/03/18 05:04:36;;;;;;;9.73;4.13;;;;;;;;;;6195470;28;20088;-71
2021/03/18 05:07:38;;;;;;;5.63;2.70;;;;;;;;;;6203025;28;20049;-69
2021/03/18 05:10:41;;;;;;;7.60;3.10;;;;;;;;;;6213598;28;20184;-70
2021/03/18 05:13:42;;;;;;;4.95;3.22;;;;;;;;;;6212967;28;20053;-70
2021/03/18 05:16:44;;;;;;;6.68;3.35;;;;;;;;;;6217168;28;20138;-70
2021/03/18 05:19:45;;;;;;;5.72;3.30;;;;;;;;;;6205697;28;20523;-69
2021/03/18 05:22:47;;;;;;;11.50;4.95;;;;;;;;;;6201401;28;20137;-71
2021/03/18 05:25:48;;;;;;;6.10;3.03;;;;;;;;;;6179131;28;20050;-70
2021/03/18 05:28:49;;;;;;;9.55;3.42;;;;;;;;;;6171881;28;20144;-70
2021/03/18 05:31:50;;;;;;;6.93;3.40;;;;;;;;;;6190394;28;20133;-71
2021/03/18 05:34:51;;;;;;;4.85;3.15;;;;;;;;;;6215098;28;20077;-69
2021/03/18 05:37:53;;;;;;;4.18;2.88;;;;;;;;;;6206680;28;20088;-69
2021/03/18 05:40:56;;;;;;;6.63;3.42;;;;;;;;;;6209876;28;20140;-68
2021/03/18 05:43:57;;;;;;;5.80;3.10;;;;;;;;;;6206579;28;20076;-70
2021/03/18 05:46:59;;;;;;;7.95;3.28;;;;;;;;;;6203942;28;20086;-69
2021/03/18 05:50:01;;;;;;;8.48;3.53;;;;;;;;;;6204985;28;20077;-69
2021/03/18 05:53:03;;;;;;;6.55;2.80;;;;;;;;;;6207882;28;20137;-70
2021/03/18 05:56:05;;;;;;;6.00;3.20;;;;;;;;;;6212339;28;20072;-70
2021/03/18 05:59:06;;;;;;;6.13;2.78;;;;;;;;;;6204758;28;20166;-69
2021/03/18 06:02:09;;;;;;;6.40;3.35;;;;;;;;;;6202102;28;20050;-69
2021/03/18 06:05:11;;;;;;;7.65;3.53;;;;;;;;;;6205232;28;20050;-70
2021/03/18 06:08:14;;;;;;;7.93;3.40;;;;;;;;;;6204427;28;20100;-70
2021/03/18 06:11:15;;;;;;;7.03;3.92;;;;;;;;;;6208245;28;20050;-69
2021/03/18 06:14:16;;;;;;;7.20;3.78;;;;;;;;;;6206516;28;20057;-68
2021/03/18 06:17:17;;;;;;;8.82;4.13;;;;;;;;;;6203399;28;20160;-70
2021/03/18 06:20:21;;;;;;;6.40;4.03;;;;;;;;;;6202271;28;20648;-69
2021/03/18 06:23:23;;;;;;;7.20;3.58;;;;;;;;;;6202339;28;20060;-69
2021/03/18 06:26:33;;;;;;;6.75;3.45;;;;;;;;;;6209105;28;20129;-70
2021/03/18 06:29:36;;;;;;;5.53;3.47;;;;;;;;;;6200819;28;20143;-69
2021/03/18 06:32:37;;;;;;;10.18;4.13;;;;;;;;;;6204152;28;20064;-71
2021/03/18 06:35:38;;;;;;;8.02;3.85;;;;;;;;;;6180938;28;20231;-71
2021/03/18 06:38:40;;;;;;;8.02;3.75;;;;;;;;;;6180554;28;20085;-69
2021/03/18 06:41:42;;;;;;;6.57;3.90;;;;;;;;;;6202894;28;20172;-69
2021/03/18 06:44:43;;;;;;;6.00;3.70;;;;;;;;;;6205337;28;20228;-69
2021/03/18 06:47:48;;;;;;;10.55;3.90;;;;;;;;;;6178558;28;20526;-74
2021/03/18 06:50:49;;;;;;;;;;;;;;;;;;6178204;28;20129;-69
2021/03/18 06:53:52;;;;;;;6.78;4.25;;;;;;;;;;6176625;28;19999;-69
2021/03/18 06:56:54;;;;;;;7.03;3.75;;;;;;;;;;6195370;28;20078;-69
2021/03/18 06:59:55;;;;;;;6.70;4.05;;;;;;;;;;6200524;28;20129;-70
2021/03/18 07:02:56;;;;;;;6.45;4.40;;;;;;;;;;6193977;28;20180;-70
2021/03/18 07:05:58;;;;;;;9.68;5.03;;;;;;;;;;6183240;28;20149;-70
2021/03/18 07:09:08;;;;;;;6.95;4.40;;;;;;;;;;6202820;28;20120;-69
2021/03/18 07:12:11;;;;;;;8.60;4.63;;;;;;;;;;6198602;28;20522;-70
2021/03/18 07:15:19;;;;;;;7.75;4.43;;;;;;;;;;6202033;28;20070;-71
2021/03/18 07:18:20;;;;;;;8.52;4.82;;;;;;;;;;6207447;28;20061;-70
2021/03/18 07:21:34;;;;;;;9.43;5.07;;;;;;;;;;6204383;28;20096;-70
2021/03/18 07:24:37;;;;;;;7.70;4.53;;;;;;;;;;6215822;28;20580;-69
2021/03/18 07:27:43;;;;;;;6.95;4.05;;;;;;;;;;6213021;28;20065;-70
2021/03/18 07:30:44;;;;;;;6.63;4.40;;;;;;;;;;6204045;28;20050;-73
2021/03/18 07:33:46;;;;;;;10.80;5.00;;;;;;;;;;6210605;28;20129;-70
2021/03/18 07:36:48;;;;;;;6.80;4.70;;;;;;;;;;6215029;28;20451;-72
2021/03/18 07:39:50;;;;;;;6.78;4.20;;;;;;;;;;6212549;28;20141;-75
2021/03/18 07:42:52;;;;;;;4.88;3.65;;;;;;;;;;6209954;28;20560;-70
2021/03/18 07:45:53;;;;;;;5.88;4.13;;;;;;;;;;6202972;28;20053;-70
2021/03/18 07:48:56;;;;;;;6.10;4.03;;;;;;;;;;6200017;28;20533;-70
2021/03/18 07:52:01;;;;;;;6.68;3.90;;;;;;;;;;6205730;28;20042;-71
2021/03/18 07:55:04;;;;;;;8.55;3.67;;;;;;;;;;6204147;28;20042;-70
2021/03/18 07:58:05;;;;;;;5.53;4.07;;;;;;;;;;6202394;28;20069;-69
2021/03/18 08:01:07;;;;;;;7.45;3.60;;;;;;;;;;6206094;28;20544;-71
2021/03/18 08:04:10;;;;;;;8.82;4.80;;;;;;;;;;6210840;28;20136;-72
2021/03/18 08:07:11;;;;;;;7.45;4.97;;;;;;;;;;6210685;28;20066;-70
2021/03/18 08:10:15;;;;;;;9.38;4.10;;;;;;;;;;6209720;28;20133;-71
2021/03/18 08:13:31;;;;;;;6.72;3.92;;;;;;;;;;6211613;28;20129;-71
2021/03/18 08:16:33;;;;;;;6.05;3.75;;;;;;;;;;6207703;28;20586;-71
2021/03/18 08:19:40;;;;;;;6.07;3.60;;;;;;;;;;6204074;28;20042;-71
2021/03/18 08:22:41;;;;;;;6.70;3.85;;;;;;;;;;6206401;28;20764;-71
2021/03/18 08:25:43;;;;;;;8.27;3.83;;;;;;;;;;6209428;28;20603;-71
2021/03/18 08:28:46;;;;;;;8.20;3.35;;;;;;;;;;6204780;28;20049;-72
2021/03/18 08:31:51;;;;;;;5.53;3.28;;;;;;;;;;6206796;28;20157;-71
2021/03/18 08:34:54;;;;;;;5.07;2.90;;;;;;;;;;6205220;28;20132;-72
2021/03/18 08:38:13;;;;;;;4.83;2.73;;;;;;;;;;6209224;28;20069;-72
2021/03/18 08:41:28;;;;;;;4.40;2.70;;;;;;;;;;6206593;28;20499;-71
2021/03/18 08:44:31;;;;;;;5.75;2.97;;;;;;;;;;6207796;28;20147;-72
2021/03/18 08:47:37;;;;;;;3.65;2.95;;;;;;;;;;6208058;28;20120;-71
2021/03/18 08:50:50;;;;;;;4.07;2.28;;;;;;;;;;6210849;28;20501;-71
2021/03/18 08:53:51;;;;;;;3.60;2.83;;;;;;;;;;6201959;28;20046;-72
2021/03/18 08:56:53;;;;;;;3.25;2.47;;;;;;;;;;6206614;28;20541;-72
2021/03/18 08:59:56;;;;;;;3.72;2.33;;;;;;;;;;6196149;28;20124;-72
2021/03/18 09:02:57;;;;;;;5.63;2.53;;;;;;;;;;6201794;28;20057;-72
2021/03/18 09:05:59;;;;;;;2.97;2.38;;;;;;;;;;6201232;28;20466;-72
2021/03/18 09:09:00;;;;;;;3.00;2.35;;;;;;;;;;6204627;28;20076;-72
2021/03/18 09:12:03;;;;;;;4.32;2.20;;;;;;;;;;6206074;28;20054;-69
2021/03/18 09:15:22;;;;;;;2.90;2.00;;;;;;;;;;6206081;28;20085;-72
2021/03/18 09:18:25;;;;;;;6.43;2.17;;;;;;;;;;6197149;28;20141;-72
2021/03/18 09:21:26;;;;;;;2.80;2.13;;;;;;;;;;6202506;28;20073;-72
2021/03/18 09:24:34;;;;;;;2.70;2.03;;;;;;;;;;6206857;28;20056;-71
2021/03/18 09:27:38;;;;;;;4.07;2.22;;;;;;;;;;6207369;28;20429;-70
2021/03/18 09:30:40;;;;;;;5.53;2.25;;;;;;;;;;6210881;28;20081;-71
2021/03/18 09:33:43;;;;;;;3.80;1.90;;;;;;;;;;6209149;28;20119;-70
2021/03/18 09:36:44;;;;;;;4.57;1.98;;;;;;;;;;6211403;28;20140;-70
2021/03/18 09:39:48;;;;;;;6.50;1.85;;;;;;;;;;6208270;28;20513;-72
2021/03/18 09:42:52;;;;;;;3.38;1.80;;;;;;;;;;6199318;28;20476;-71
2021/03/18 09:45:54;;;;;;;;;;;;;;;;;;6198559;28;20111;-71
2021/03/18 09:48:55;;;;;;;3.15;1.90;;;;;;;;;;6198460;28;20439;-71
2021/03/18 09:51:57;;;;;;;3.42;1.80;;;;;;;;;;6201493;28;20046;-71
2021/03/18 09:54:59;;;;;;;2.30;1.60;;;;;;;;;;6205535;28;20053;-70
2021/03/18 09:58:10;;;;;;;3.95;2.10;;;;;;;;;;6203757;28;20090;-69
2021/03/18 10:01:13;;;;;;;2.47;2.00;;;;;;;;;;6206471;28;20058;-70
2021/03/18 10:04:16;;;;;;;3.05;2.20;;;;;;;;;;6202503;28;20046;-69
2021/03/18 10:07:17;;;;;;;3.17;2.05;;;;;;;;;;6205091;28;20050;-70
2021/03/18 10:10:20;;;;;;;3.38;2.00;;;;;;;;;;6210112;28;20053;-70
2021/03/18 10:13:22;;;;;;;5.25;2.13;;;;;;;;;;6206948;28;20049;-70
2021/03/18 10:16:23;;;;;;;2.72;2.03;;;;;;;;;;6202133;28;20050;-70
2021/03/18 10:19:26;;;;;;;4.45;2.22;;;;;;;;;;6177973;28;21000;-71
2021/03/18 10:22:31;;;;;;;4.72;1.75;;;;;;;;;;6206164;28;20137;-71
2021/03/18 10:25:34;;;;;;;3.53;2.10;;;;;;;;;;6203501;28;20073;-70
2021/03/18 10:28:36;;;;;;;4.00;2.30;;;;;;;;;;6204555;28;20551;-71
2021/03/18 10:31:39;;;;;;;2.67;2.03;;;;;;;;;;6201690;28;20468;-73
2021/03/18 10:34:41;;;;;;;3.53;2.30;;;;;;;;;;6185068;28;20145;-69
2021/03/18 10:37:43;;;;;;;4.80;2.45;;;;;;;;;;6183834;28;20497;-69
2021/03/18 10:40:45;;;;;;;3.47;2.22;;;;;;;;;;6177900;28;20085;-67
2021/03/18 10:43:48;;;;;;;3.40;2.50;;;;;;;;;;6185737;28;20046;-68
2021/03/18 10:46:49;;;;;;;8.48;2.78;;;;;;;;;;6192923;28;20496;-66
2021/03/18 10:49:58;;;;;;;4.63;2.55;;;;;;;;;;6180198;28;20158;-70
2021/03/18 10:53:02;;;;;;;4.75;2.70;;;;;;;;;;6175332;28;20061;-68
2021/03/18 10:56:04;;;;;;;3.15;2.45;;;;;;;;;;6175612;28;20512;-68
2021/03/18 10:59:14;;;;;;;5.95;2.58;;;;;;;;;;6179503;28;20111;-68
2021/03/18 11:02:15;;;;;;;2.55;2.15;;;;;;;;;;6194233;28;20046;-69
2021/03/18 11:05:28;;;;;;;2.65;2.35;;;;;;;;;;6202427;28;20573;-72
2021/03/18 11:08:30;;;;;;;7.00;2.70;;;;;;;;;;6194886;28;20482;-71
2021/03/18 11:11:33;;;;;;;4.18;2.40;;;;;;;;;;6190026;28;20050;-68
2021/03/18 11:14:35;;;;;;;5.05;2.40;;;;;;;;;;6181357;28;20122;-68
2021/03/18 11:17:36;;;;;;;3.95;2.40;;;;;;;;;;6192181;28;20132;-67
2021/03/18 11:20:38;;;;;;;3.40;2.45;;;;;;;;;;6196047;28;20121;-68
2021/03/18 11:23:40;;;;;;;3.42;2.60;;;;;;;;;;6172478;28;20061;-68
2021/03/18 11:26:42;;;;;;;4.28;2.42;;;;;;;;;;6184480;28;20058;-70
2021/03/18 11:29:44;;;;;;;4.22;2.03;;;;;;;;;;6188395;28;20050;-68
2021/03/18 11:32:45;;;;;;;2.30;1.98;;;;;;;;;;6189470;28;20081;-68
2021/03/18 11:35:48;;;;;;;2.55;2.10;;;;;;;;;;6198352;28;20520;-68
2021/03/18 11:38:49;;;;;;;3.47;2.35;;;;;;;;;;6200328;28;20102;-68
2021/03/18 11:41:51;;;;;;;2.35;1.92;;;;;;;;;;6205966;28;20057;-68
2021/03/18 11:44:53;;;;;;;15.00;2.90;;;;;;;;;;6201578;28;20141;-72
2021/03/18 11:47:54;;;;;;;2.92;2.42;;;;;;;;;;6198608;28;20104;-69
2021/03/18 11:50:57;;;;;;;2.72;2.15;;;;;;;;;;6180985;28;20481;-70
2021/03/18 11:53:59;;;;;;;6.73;2.50;;;;;;;;;;6175113;28;20053;-70
2021/03/18 11:57:01;;;;;;;6.65;2.10;;;;;;;;;;6185967;28;20168;-68
2021/03/18 12:00:04;;;;;;;3.67;2.15;;;;;;;;;;6189155;28;20046;-68
2021/03/18 12:03:07;;;;;;;6.63;3.30;;;;;;;;;;6185972;28;20046;-67
2021/03/18 12:06:10;;;;;;;4.53;2.33;;;;;;;;;;6202516;28;20557;-69
2021/03/18 12:09:11;;;;;;;33.25;4.07;;;;;;;;;;6203508;28;20448;-73
2021/03/18 12:12:12;;;;;;;190.73;14.15;;;;;;;;;;6208792;28;20108;-73
2021/03/18 12:15:15;;;;;;;4.38;2.88;;;;;;;;;;6200707;28;20161;-71
2021/03/18 12:18:17;;;;;;;8.85;2.50;;;;;;;;;;6184840;28;20549;-68
2021/03/18 12:21:19;;;;;;;2.92;2.22;;;;;;;;;;6176563;28;20058;-70
2021/03/18 12:24:20;;;;;;;4.35;1.88;;;;;;;;;;6177486;28;20140;-75
2021/03/18 12:27:21;;;;;;;3.22;2.10;;;;;;;;;;6197939;28;20189;-68
2021/03/18 12:30:24;;;;;;;17.10;2.28;;;;;;;;;;6184717;28;20084;-70
2021/03/18 12:33:25;;;;;;;33.80;3.40;;;;;;;;;;6184922;28;20075;-68
2021/03/18 12:36:27;;;;;;;6.78;2.05;;;;;;;;;;6185053;28;20549;-67
2021/03/18 12:39:28;;;;;;;19.95;2.72;;;;;;;;;;6187855;28;20074;-70
2021/03/18 12:42:29;;;;;;;3.38;1.70;;;;;;;;;;6191266;28;20054;-72
2021/03/18 12:45:31;;;;;;;9.32;2.05;;;;;;;;;;6187108;28;20130;-69
2021/03/18 12:48:32;;;;;;;8.98;1.58;;;;;;;;;;6183131;28;20069;-70
2021/03/18 12:51:35;;;;;;;7.18;1.80;;;;;;;;;;6179386;28;20516;-66
2021/03/18 12:54:36;;;;;;;12.05;1.77;;;;;;;;;;6198249;28;20735;-68
2021/03/18 12:57:40;;;;;;;10.10;1.80;;;;;;;;;;6205531;28;20409;-70
2021/03/18 13:00:42;;;;;;;4.22;2.13;;;;;;;;;;6208334;28;20053;-70
2021/03/18 13:03:43;;;;;;;3.65;1.85;;;;;;;;;;6202841;28;20112;-70
2021/03/18 13:06:45;;;;;;;5.13;1.75;;;;;;;;;;6202219;28;20129;-70
2021/03/18 13:09:46;;;;;;;3.42;1.60;;;;;;;;;;6204455;28;20415;-69
2021/03/18 13:12:47;;;;;;;7.10;1.88;;;;;;;;;;6207352;28;20137;-69
2021/03/18 13:15:49;;;;;;;13.25;1.90;;;;;;;;;;6211395;28;20484;-70
2021/03/18 13:18:51;;;;;;;13.65;2.20;;;;;;;;;;6209701;28;20073;-72
2021/03/18 13:21:53;;;;;;;12.55;2.05;;;;;;;;;;6212324;28;20119;-70
2021/03/18 13:24:54;;;;;;;9.07;1.70;;;;;;;;;;6209433;28;20129;-70
2021/03/18 13:27:55;;;;;;;7.65;1.65;;;;;;;;;;6198138;28;20120;-71
2021/03/18 13:30:57;;;;;;;9.20;1.90;;;;;;;;;;6205248;28;20129;-73
2021/03/18 13:33:58;;;;;;;1.73;1.45;;;;;;;;;;6206382;28;20129;-70
2021/03/18 13:36:59;;;;;;;2.25;1.80;;;;;;;;;;6213968;28;20156;-70
2021/03/18 13:40:01;;;;;;;2.40;1.40;;;;;;;;;;6209906;28;20054;-71
2021/03/18 13:43:02;;;;;;;2.10;1.27;;;;;;;;;;6199608;28;20129;-73
2021/03/18 13:46:05;;;;;;;2.42;1.48;;;;;;;;;;6205919;28;20567;-72
2021/03/18 13:49:06;;;;;;;2.95;1.92;;;;;;;;;;6202705;28;20096;-72
2021/03/18 13:52:07;;;;;;;2.22;1.70;;;;;;;;;;6197872;28;20148;-69
2021/03/18 13:55:09;;;;;;;27.20;3.35;;;;;;;;;;6199261;28;20078;-72
2021/03/18 13:58:10;;;;;;;25.63;3.58;;;;;;;;;;6208050;28;20108;-67
2021/03/18 14:01:12;;;;;;;1401.85;109.32;;;;;;;;;;6201861;28;20109;-76
2021/03/18 14:04:14;;;;;;;5.68;2.60;;;;;;;;;;6202988;28;20221;-72
2021/03/18 14:07:15;;;;;;;7.45;2.50;;;;;;;;;;6202587;28;20073;-72
2021/03/18 14:10:19;;;;;;;5.45;2.10;;;;;;;;;;6203910;28;20130;-72
2021/03/18 14:13:20;;;;;;;8.15;1.85;;;;;;;;;;6203319;28;20046;-72
2021/03/18 14:16:22;;;;;;;7.07;1.92;;;;;;;;;;6195238;28;20446;-71
2021/03/18 14:19:23;;;;;;;2.50;1.52;;;;;;;;;;6190297;28;20128;-74
2021/03/18 14:22:24;;;;;;;2.08;1.45;;;;;;;;;;6202250;28;20129;-76
2021/03/18 14:25:25;;;;;;;2.67;1.58;;;;;;;;;;6205218;28;20052;-72
2021/03/18 14:28:26;;;;;;;3.30;1.98;;;;;;;;;;6202448;28;20176;-72
2021/03/18 14:31:28;;;;;;;3.15;1.90;;;;;;;;;;6202077;28;20129;-74
2021/03/18 14:34:29;;;;;;;3.13;1.90;;;;;;;;;;6202729;28;20462;-72
2021/03/18 14:37:30;;;;;;;2.90;1.60;;;;;;;;;;6196471;28;20076;-71
2021/03/18 14:40:37;;;;;;;3.28;1.98;;;;;;;;;;6210090;28;20088;-73
2021/03/18 14:43:38;;;;;;;3.58;1.98;;;;;;;;;;6213482;28;20529;-72
2021/03/18 14:46:40;;;;;;;5.78;1.90;;;;;;;;;;6205160;28;20140;-71
2021/03/18 14:49:41;;;;;;;2.53;1.80;;;;;;;;;;6200440;28;20049;-73
2021/03/18 14:52:43;;;;;;;2.63;1.95;;;;;;;;;;6208982;28;20412;-73
2021/03/18 14:55:45;;;;;;;3.13;2.10;;;;;;;;;;6207213;28;20145;-71
2021/03/18 14:58:46;;;;;;;5.43;2.00;;;;;;;;;;6205790;28;20172;-71
2021/03/18 15:01:48;;;;;;;4.15;1.75;;;;;;;;;;6205379;28;20065;-72
2021/03/18 15:04:49;;;;;;;3.03;1.60;;;;;;;;;;6204728;28;20080;-73
2021/03/18 15:07:50;;;;;;;4.65;1.80;;;;;;;;;;6201991;28;20038;-72
2021/03/18 15:10:51;;;;;;;3.45;1.70;;;;;;;;;;6204975;28;20120;-71
2021/03/18 15:13:52;;;;;;;2.15;1.42;;;;;;;;;;6205486;28;20326;-73
2021/03/18 15:16:54;;;;;;;2.65;1.38;;;;;;;;;;6200168;28;20045;-71
2021/03/18 15:19:55;;;;;;;2.40;1.70;;;;;;;;;;6205966;28;20073;-74
2021/03/18 15:22:56;;;;;;;2.30;1.88;;;;;;;;;;6206447;28;20081;-72
2021/03/18 15:25:57;;;;;;;3.50;1.75;;;;;;;;;;6208618;28;20162;-72
2021/03/18 15:28:59;;;;;;;2.00;1.60;;;;;;;;;;6209466;28;20141;-72
2021/03/18 15:32:01;;;;;;;2.38;1.85;;;;;;;;;;6203092;28;20066;-72
2021/03/18 15:35:03;;;;;;;2.50;1.90;;;;;;;;;;6201864;28;20074;-73
2021/03/18 15:38:04;;;;;;;3.20;1.75;;;;;;;;;;6208149;28;21456;-73
2021/03/18 15:41:06;;;;;;;2.50;1.48;;;;;;;;;;6205509;28;20088;-72
2021/03/18 15:44:08;;;;;;;1.73;1.60;;;;;;;;;;6209257;28;20492;-72
2021/03/18 15:47:10;;;;;;;3.38;1.67;;;;;;;;;;6209340;28;20165;-73
2021/03/18 15:50:16;;;;;;;2.22;1.80;;;;;;;;;;6212909;28;20137;-73
2021/03/18 15:53:17;;;;;;;4.93;1.95;;;;;;;;;;6213821;28;20184;-73
2021/03/18 15:56:19;;;;;;;3.42;1.80;;;;;;;;;;6212597;28;20049;-74
2021/03/18 15:59:20;;;;;;;3.53;2.10;;;;;;;;;;6204307;28;20129;-73
2021/03/18 16:02:22;;;;;;;3.50;1.73;;;;;;;;;;6221144;28;20058;-75
2021/03/18 16:05:24;;;;;;;2.38;1.92;;;;;;;;;;6209919;28;20041;-74
2021/03/18 16:08:25;;;;;;;2.63;1.75;;;;;;;;;;6209804;28;20473;-75
2021/03/18 16:11:26;;;;;;;3.60;1.80;;;;;;;;;;6210019;28;20495;-74
2021/03/18 16:14:27;;;;;;;2.53;1.60;;;;;;;;;;6211517;28;20588;-74
2021/03/18 16:17:29;;;;;;;2.83;1.80;;;;;;;;;;6206163;28;20074;-74
2021/03/18 16:20:31;;;;;;;2.28;1.88;;;;;;;;;;6211473;28;20073;-73
2021/03/18 16:23:32;;;;;;;2.95;1.58;;;;;;;;;;6206514;28;20060;-71
2021/03/18 16:26:34;;;;;;;3.40;1.80;;;;;;;;;;6210592;28;20046;-76
2021/03/18 16:29:35;;;;;;;3.88;1.80;;;;;;;;;;6209407;28;20050;-70
2021/03/18 16:32:37;;;;;;;2.47;1.80;;;;;;;;;;6212965;28;20461;-73
2021/03/18 16:35:39;;;;;;;3.75;1.83;;;;;;;;;;6217029;28;20084;-74
2021/03/18 16:38:41;;;;;;;3.53;1.90;;;;;;;;;;6214929;28;20077;-72
2021/03/18 16:41:42;;;;;;;3.67;1.92;;;;;;;;;;6212175;28;20069;-73
2021/03/18 16:44:43;;;;;;;2.45;1.80;;;;;;;;;;6214197;28;20116;-77
2021/03/18 16:47:45;;;;;;;4.07;1.92;;;;;;;;;;6207948;28;20133;-77
2021/03/18 16:50:46;;;;;;;2.78;1.90;;;;;;;;;;6204796;28;20400;-69
2021/03/18 16:53:47;;;;;;;2.78;1.90;;;;;;;;;;6205691;28;20530;-69
2021/03/18 16:56:48;;;;;;;5.45;2.08;;;;;;;;;;6202830;28;20235;-69
2021/03/18 16:59:50;;;;;;;3.40;1.73;;;;;;;;;;6206347;28;20149;-71
2021/03/18 17:02:52;;;;;;;3.78;2.10;;;;;;;;;;6206424;28;20077;-69
2021/03/18 17:05:54;;;;;;;5.78;1.90;;;;;;;;;;6200254;28;20563;-70
2021/03/18 17:08:55;;;;;;;2.38;1.90;;;;;;;;;;6204861;28;20111;-70
2021/03/18 17:12:01;;;;;;;2.72;1.90;;;;;;;;;;6205764;28;20054;-70
2021/03/18 17:15:03;;;;;;;3.53;2.10;;;;;;;;;;6207418;28;20050;-70
2021/03/18 17:18:08;;;;;;;2.58;1.75;;;;;;;;;;6200953;28;20089;-71
2021/03/18 17:21:09;;;;;;;2.58;2.00;;;;;;;;;;6203261;28;20060;-69
2021/03/18 17:24:11;;;;;;;3.25;2.00;;;;;;;;;;6204341;28;20085;-69
2021/03/18 17:27:12;;;;;;;4.07;2.30;;;;;;;;;;6206172;28;20058;-69
2021/03/18 17:30:15;;;;;;;10.32;2.55;;;;;;;;;;6206370;28;20137;-69
2021/03/18 17:33:21;;;;;;;4.28;2.70;;;;;;;;;;6208891;28;20062;-69
2021/03/18 17:36:22;;;;;;;9.60;2.90;;;;;;;;;;6211162;28;20046;-67
2021/03/18 17:39:23;;;;;;;9.63;2.72;;;;;;;;;;6208490;28;20386;-72
2021/03/18 17:42:24;;;;;;;4.57;2.90;;;;;;;;;;6207157;28;20046;-73
2021/03/18 17:45:26;;;;;;;4.40;3.10;;;;;;;;;;6208972;28;20082;-74
2021/03/18 17:48:28;;;;;;;5.10;3.13;;;;;;;;;;6205753;28;20564;-71
2021/03/18 17:51:29;;;;;;;9.43;3.20;;;;;;;;;;6204945;28;20563;-71
2021/03/18 17:54:31;;;;;;;8.25;2.60;;;;;;;;;;6205943;28;20117;-74
2021/03/18 17:57:32;;;;;;;3.75;2.60;;;;;;;;;;6206738;28;20074;-73
2021/03/18 18:00:33;;;;;;;3.80;2.17;;;;;;;;;;6208169;28;20061;-72
2021/03/18 18:03:36;;;;;;;4.38;2.60;;;;;;;;;;6206370;28;20050;-69
2021/03/18 18:06:37;;;;;;;5.60;2.28;;;;;;;;;;6208578;28;20125;-70
2021/03/18 18:09:38;;;;;;;3.70;2.67;;;;;;;;;;6210760;28;20065;-69
2021/03/18 18:12:41;;;;;;;4.57;2.38;;;;;;;;;;6212198;28;20168;-71
2021/03/18 18:15:42;;;;;;;3.92;2.58;;;;;;;;;;6192623;28;20137;-69